Time;durP1;ratioP1;P1;durP2;ratioP2;P2;SDS_P1;SDS_P2;PMS_P1;PMS_P2;Temp;Humidity;BMP_temperature;BMP_pressure;BME280_temperature;BME280_humidity;BME280_pressure;Samples;Min_cycle;Max_cycle;Signal;HPM_P1;HPM_P2
2023/08/04 00:00:48;;;;;;;19.88;18.15;;;;;;;21.89;100.00;94508.16;5012227;28;20029;-92
2023/08/04 00:03:14;;;;;;;19.50;17.90;;;;;;;21.81;100.00;94519.13;5023735;28;20112;-92
2023/08/04 00:05:39;;;;;;;19.88;18.27;;;;;;;21.66;100.00;94540.09;5022243;28;20829;-92
2023/08/04 00:08:05;;;;;;;19.50;17.90;;;;;;;21.65;100.00;94546.38;5022601;28;20025;-89
2023/08/04 00:10:30;;;;;;;19.60;17.63;;;;;;;21.88;100.00;94535.53;5021781;28;20486;-89
2023/08/04 00:12:55;;;;;;;19.05;17.25;;;;;;;21.76;100.00;94519.09;5023421;28;20479;-89
2023/08/04 00:15:21;;;;;;;19.48;17.90;;;;;;;21.62;100.00;94552.97;5022946;28;20036;-91
2023/08/04 00:17:46;;;;;;;20.00;18.55;;;;;;;21.56;100.00;94553.97;5023160;28;20025;-90
2023/08/04 00:20:12;;;;;;;20.63;19.10;;;;;;;21.50;100.00;94561.03;5017189;28;20125;-89
2023/08/04 00:22:38;;;;;;;19.23;17.83;;;;;;;21.47;100.00;94566.78;5021864;28;20038;-90
2023/08/04 00:25:04;;;;;;;19.35;17.65;;;;;;;21.45;100.00;94571.50;5021929;28;20072;-89
2023/08/04 00:27:30;;;;;;;20.15;18.65;;;;;;;21.44;100.00;94567.28;5010090;28;20517;-91
2023/08/04 00:29:55;;;;;;;19.67;18.05;;;;;;;21.40;100.00;94570.66;5022168;28;20036;-89
2023/08/04 00:32:21;;;;;;;20.17;18.13;;;;;;;21.34;100.00;94583.00;5022952;28;20060;-92
2023/08/04 00:34:47;;;;;;;20.02;18.42;;;;;;;21.28;100.00;94578.69;5023691;28;20056;-91
2023/08/04 00:37:12;;;;;;;19.73;17.88;;;;;;;21.13;100.00;94596.94;5022789;28;20018;-90
2023/08/04 00:39:38;;;;;;;20.90;19.08;;;;;;;21.18;100.00;94597.03;5024269;28;20506;-93
2023/08/04 00:42:03;;;;;;;19.00;17.35;;;;;;;21.23;100.00;94586.53;5014447;28;20416;-94
2023/08/04 00:44:29;;;;;;;20.00;18.17;;;;;;;21.35;100.00;94575.88;5026848;28;20025;-91
2023/08/04 00:46:55;;;;;;;21.08;18.83;;;;;;;21.45;100.00;94562.78;5026209;28;20030;-90
2023/08/04 00:49:20;;;;;;;21.42;19.20;;;;;;;21.40;100.00;94563.56;5025520;28;20325;-87
2023/08/04 00:51:46;;;;;;;20.20;18.48;;;;;;;21.40;100.00;94574.09;5025633;28;20470;-90
2023/08/04 00:54:12;;;;;;;19.38;17.98;;;;;;;21.37;100.00;94584.31;5024892;28;20033;-89
2023/08/04 00:56:39;;;;;;;19.88;18.27;;;;;;;21.19;100.00;94590.69;5025962;28;20029;-87
2023/08/04 00:59:05;;;;;;;19.52;17.92;;;;;;;21.32;100.00;94587.69;5024031;28;20034;-89
2023/08/04 01:01:31;;;;;;;20.58;18.50;;;;;;;21.45;100.00;94568.88;5025959;28;20021;-90
2023/08/04 01:03:57;;;;;;;20.02;18.13;;;;;;;21.29;100.00;94567.09;5025921;28;20491;-89
2023/08/04 01:06:40;;;;;;;20.20;18.48;;;;;;;21.34;100.00;94576.91;5025432;28;20025;-87
2023/08/04 01:09:32;;;;;;;20.90;18.88;;;;;;;21.44;100.00;94559.38;5024394;28;20821;-88
2023/08/04 01:12:09;;;;;;;20.15;18.33;;;;;;;21.47;100.00;94560.72;5024787;28;20542;-86
2023/08/04 01:14:35;;;;;;;20.02;18.52;;;;;;;21.32;100.00;94569.25;5007026;28;20541;-89
2023/08/04 01:17:28;;;;;;;20.88;18.95;;;;;;;21.21;100.00;94583.34;5020688;28;20021;-88
2023/08/04 01:19:53;;;;;;;19.95;18.30;;;;;;;21.23;100.00;94589.16;5024998;28;20828;-92
2023/08/04 01:22:20;;;;;;;20.33;18.67;;;;;;;21.24;100.00;94580.22;5026338;28;20029;-89
2023/08/04 01:24:46;;;;;;;21.52;19.15;;;;;;;21.13;100.00;94578.50;5026534;28;20041;-89
2023/08/04 01:27:13;;;;;;;22.55;19.15;;;;;;;21.18;100.00;94567.25;5025297;28;20124;-88
2023/08/04 01:29:41;;;;;;;22.05;20.40;;;;;;;21.18;100.00;94578.56;5025349;28;20063;-88
2023/08/04 01:32:07;;;;;;;21.77;19.80;;;;;;;21.17;100.00;94570.91;5008242;28;20164;-88
2023/08/04 01:34:32;;;;;;;21.70;19.83;;;;;;;21.18;100.00;94577.78;5022851;28;20112;-87
2023/08/04 01:36:58;;;;;;;21.55;19.63;;;;;;;21.21;100.00;94587.81;5023061;28;20037;-87
2023/08/04 01:39:25;;;;;;;20.83;18.83;;;;;;;21.17;100.00;94581.44;5023256;28;20028;-87
2023/08/04 01:41:51;;;;;;;20.98;18.73;;;;;;;21.14;100.00;94580.09;5022933;28;20022;-86
2023/08/04 01:44:16;;;;;;;22.45;19.60;;;;;;;21.14;100.00;94592.47;5024401;28;20087;-88
2023/08/04 01:46:42;;;;;;;21.52;19.63;;;;;;;21.12;100.00;94584.84;5024147;28;20026;-88
2023/08/04 01:49:07;;;;;;;22.95;20.65;;;;;;;21.10;100.00;94601.91;5023317;28;20041;-88
2023/08/04 01:51:33;;;;;;;22.17;20.05;;;;;;;21.10;100.00;94609.78;5022756;28;20033;-87
2023/08/04 01:53:58;;;;;;;21.13;19.20;;;;;;;21.01;100.00;94628.63;5024022;28;20063;-86
2023/08/04 01:56:24;;;;;;;21.70;19.90;;;;;;;21.07;100.00;94620.78;5023745;28;20032;-90
2023/08/04 01:58:52;;;;;;;21.33;19.40;;;;;;;20.87;100.00;94624.75;5025297;28;20113;-89
2023/08/04 02:01:17;;;;;;;21.63;19.38;;;;;;;20.99;100.00;94620.19;5023535;28;20095;-87
2023/08/04 02:03:43;;;;;;;21.38;19.70;;;;;;;20.89;100.00;94632.41;5023917;28;20513;-88
2023/08/04 02:06:08;;;;;;;21.75;19.58;;;;;;;21.10;100.00;94623.78;5024768;28;20025;-88
2023/08/04 02:08:34;;;;;;;20.85;19.15;;;;;;;21.04;100.00;94617.63;5024707;28;20237;-90
2023/08/04 02:10:59;;;;;;;21.48;19.55;;;;;;;20.73;100.00;94638.50;5025685;28;20056;-90
2023/08/04 02:13:25;;;;;;;22.73;20.85;;;;;;;20.65;100.00;94686.28;5023940;28;20033;-91
2023/08/04 02:15:50;;;;;;;23.80;21.80;;;;;;;20.67;100.00;94689.47;5024138;28;20029;-91
2023/08/04 02:18:15;;;;;;;22.33;20.50;;;;;;;20.78;100.00;94652.53;5024582;28;20117;-89
2023/08/04 02:20:41;;;;;;;23.33;21.42;;;;;;;20.70;100.00;94662.69;5024636;28;20025;-88
2023/08/04 02:23:06;;;;;;;22.45;20.65;;;;;;;20.83;100.00;94657.09;5024661;28;20044;-90
2023/08/04 02:25:32;;;;;;;21.77;19.80;;;;;;;20.81;100.00;94651.25;5024513;28;20037;-90
2023/08/04 02:27:57;;;;;;;21.65;19.85;;;;;;;20.71;100.00;94654.53;5024802;28;20039;-89
2023/08/04 02:30:23;;;;;;;21.65;19.75;;;;;;;20.85;100.00;94645.25;5023061;28;20402;-89
2023/08/04 02:32:48;;;;;;;22.20;20.20;;;;;;;20.79;100.00;94642.81;5022980;28;20490;-89
2023/08/04 02:35:14;;;;;;;22.83;20.92;;;;;;;20.73;100.00;94646.41;5024035;28;20518;-89
2023/08/04 02:37:39;;;;;;;22.13;20.35;;;;;;;20.77;100.00;94656.22;5023552;28;20457;-87
2023/08/04 02:40:05;;;;;;;22.08;20.08;;;;;;;20.78;100.00;94638.56;5023183;28;20477;-90
2023/08/04 02:42:31;;;;;;;22.70;20.70;;;;;;;20.71;100.00;94645.84;5013128;28;20036;-89
2023/08/04 02:44:57;;;;;;;21.75;19.63;;;;;;;20.74;100.00;94650.63;5022063;28;20022;-89
2023/08/04 02:47:22;;;;;;;23.42;20.98;;;;;;;20.62;100.00;94647.28;5024422;28;20033;-89
2023/08/04 02:49:48;;;;;;;23.70;20.15;;;;;;;20.62;100.00;94647.28;5024108;28;20021;-88
2023/08/04 02:52:16;;;;;;;22.08;20.23;;;;;;;20.66;100.00;94637.88;5023630;28;20037;-88
2023/08/04 02:54:42;;;;;;;21.35;19.23;;;;;;;20.52;100.00;94653.16;5024441;28;20083;-88
2023/08/04 02:57:08;;;;;;;22.13;20.23;;;;;;;20.65;100.00;94644.16;5023302;28;20030;-89
2023/08/04 02:59:33;;;;;;;21.85;20.00;;;;;;;20.51;100.00;94656.84;5023882;28;20044;-89
2023/08/04 03:01:59;;;;;;;21.00;19.33;;;;;;;20.58;100.00;94662.75;5023222;28;20009;-89
2023/08/04 03:04:24;;;;;;;22.00;19.55;;;;;;;20.39;100.00;94674.53;5023612;28;20465;-87
2023/08/04 03:06:50;;;;;;;22.48;20.52;;;;;;;20.29;100.00;94690.19;5024086;28;20079;-90
2023/08/04 03:09:15;;;;;;;22.52;20.67;;;;;;;20.24;100.00;94703.19;5022962;28;20091;-87
2023/08/04 03:11:42;;;;;;;22.92;21.02;;;;;;;20.33;100.00;94699.97;5023988;28;20103;-89
2023/08/04 03:14:07;;;;;;;21.90;19.83;;;;;;;20.42;100.00;94695.91;5023152;28;20032;-89
2023/08/04 03:16:33;;;;;;;20.58;18.92;;;;;;;20.53;100.00;94670.56;5024300;28;20025;-90
2023/08/04 03:18:58;;;;;;;21.58;20.02;;;;;;;20.58;100.00;94662.75;5014348;28;20558;-89
2023/08/04 03:21:23;;;;;;;21.45;19.70;;;;;;;20.54;100.00;94660.84;5016779;28;20507;-91
2023/08/04 03:23:49;;;;;;;21.95;20.08;;;;;;;20.60;100.00;94662.50;5024443;28;20108;-89
2023/08/04 03:26:14;;;;;;;20.65;18.98;;;;;;;20.52;100.00;94664.50;5024073;28;20034;-89
2023/08/04 03:28:40;;;;;;;21.98;20.27;;;;;;;20.60;100.00;94665.16;5023765;28;20084;-88
2023/08/04 03:31:06;;;;;;;21.50;19.73;;;;;;;20.56;100.00;94677.19;5022672;28;20542;-89
2023/08/04 03:33:33;;;;;;;22.95;21.02;;;;;;;20.58;100.00;94668.00;5023620;28;20033;-87
2023/08/04 03:35:58;;;;;;;21.92;19.70;;;;;;;20.66;100.00;94664.19;5021190;28;20483;-88
2023/08/04 03:38:24;;;;;;;21.33;19.38;;;;;;;20.56;100.00;94649.03;5023021;28;20034;-89
2023/08/04 03:40:50;;;;;;;28.25;19.08;;;;;;;20.55;100.00;94657.19;5023879;28;20117;-92
2023/08/04 03:43:15;;;;;;;22.95;19.75;;;;;;;20.43;100.00;94665.94;5024387;28;20021;-90
2023/08/04 03:45:41;;;;;;;20.95;18.98;;;;;;;20.63;100.00;94643.59;5023736;28;20025;-89
2023/08/04 03:48:06;;;;;;;23.83;21.58;;;;;;;20.73;100.00;94638.50;5022390;28;20033;-88
2023/08/04 03:50:32;;;;;;;21.10;19.02;;;;;;;20.74;100.00;94650.63;5018443;28;20030;-89
2023/08/04 03:52:57;;;;;;;21.33;18.95;;;;;;;20.75;100.00;94652.22;5012336;28;20038;-89
2023/08/04 03:55:23;;;;;;;22.23;20.23;;;;;;;20.90;100.00;94641.91;5038066;28;20580;-89
2023/08/04 03:57:48;;;;;;;21.38;19.50;;;;;;;21.05;100.00;94631.59;5022776;28;20033;-88
2023/08/04 04:00:14;;;;;;;21.38;19.63;;;;;;;21.28;100.00;94614.78;5021597;28;20033;-88
2023/08/04 04:02:39;;;;;;;21.27;19.15;;;;;;;21.41;100.00;94604.69;5022724;28;20455;-87
2023/08/04 04:05:05;;;;;;;20.52;18.83;;;;;;;21.47;100.00;94587.88;5022116;28;20570;-87
2023/08/04 04:07:30;;;;;;;19.95;18.13;;;;;;;21.63;100.00;94585.41;5022361;28;20033;-89
2023/08/04 04:09:56;;;;;;;19.77;17.60;;;;;;;21.92;100.00;94573.59;5022564;28;20059;-86
2023/08/04 04:12:21;;;;;;;20.60;18.90;;;;;;;22.48;100.00;94536.03;5021553;28;20850;-86
2023/08/04 04:14:47;;;;;;;19.73;17.95;;;;;;;22.33;100.00;94530.66;5020720;28;20025;-87
2023/08/04 04:17:13;;;;;;;19.92;18.08;;;;;;;22.36;100.00;94539.91;5021188;28;20025;-88
2023/08/04 04:19:38;;;;;;;18.60;17.10;;;;;;;22.21;100.00;94534.53;5022813;28;20045;-89
2023/08/04 04:22:04;;;;;;;19.17;17.77;;;;;;;22.85;100.00;94525.44;5023121;28;20044;-86
2023/08/04 04:24:29;;;;;;;17.42;15.93;;;;;;;24.00;100.00;94479.19;5022237;28;20573;-86
2023/08/04 04:26:55;;;;;;;17.33;16.13;;;;;;;24.89;100.00;94467.13;5022523;28;20025;-86
2023/08/04 04:29:20;;;;;;;17.13;15.82;;;;;;;24.91;100.00;94451.75;5021905;28;20064;-86
2023/08/04 04:31:46;;;;;;;17.95;16.40;;;;;;;24.66;100.00;94452.59;5022002;28;20029;-86
2023/08/04 04:34:12;;;;;;;16.02;14.40;;;;;;;24.72;100.00;94456.06;5022123;28;20802;-87
2023/08/04 04:36:37;;;;;;;16.65;15.43;;;;;;;25.76;100.00;94442.50;5022668;28;20108;-88
2023/08/04 04:39:03;;;;;;;15.55;14.20;;;;;;;26.67;100.00;94444.34;5023103;28;20029;-88
2023/08/04 04:41:29;;;;;;;14.10;13.10;;;;;;;27.44;100.00;94439.69;5021510;28;20037;-89
2023/08/04 04:43:55;;;;;;;15.07;13.45;;;;;;;27.77;100.00;94443.97;5024083;28;20032;-89
2023/08/04 04:46:20;;;;;;;13.02;12.20;;;;;;;28.23;100.00;94438.69;5023654;28;20022;-88
2023/08/04 04:48:46;;;;;;;13.57;12.38;;;;;;;28.54;100.00;94449.63;5022082;28;20033;-89
2023/08/04 04:51:11;;;;;;;13.05;11.85;;;;;;;28.97;100.00;94450.13;5023588;28;20133;-88
2023/08/04 04:53:38;;;;;;;12.82;11.88;;;;;;;29.40;97.98;94445.25;5023831;28;20064;-89
2023/08/04 04:56:05;;;;;;;13.88;11.48;;;;;;;29.93;94.42;94456.06;5022936;28;20407;-87
2023/08/04 04:58:30;;;;;;;66.18;14.90;;;;;;;30.60;90.33;94448.78;5021841;28;20053;-87
2023/08/04 05:01:05;;;;;;;9.63;8.82;;;;;;;30.77;85.70;94451.53;5023108;28;20065;-88
2023/08/04 05:03:31;;;;;;;8.98;8.48;;;;;;;30.56;85.53;94453.19;5022688;28;20032;-89
2023/08/04 05:05:56;;;;;;;9.35;8.65;;;;;;;31.29;79.44;94453.28;5022970;28;20030;-87
2023/08/04 05:08:22;;;;;;;9.00;8.40;;;;;;;31.33;80.92;94456.13;5023680;28;20029;-88
2023/08/04 05:10:51;;;;;;;8.77;8.27;;;;;;;31.90;80.00;94454.13;5022594;28;20386;-88
2023/08/04 05:13:17;;;;;;;10.10;8.50;;;;;;;32.59;76.57;94454.06;5021077;28;20053;-85
2023/08/04 05:15:42;;;;;;;8.40;7.70;;;;;;;32.77;77.24;94460.91;5012338;28;20423;-90
2023/08/04 05:18:08;;;;;;;7.43;6.75;;;;;;;34.06;70.80;94457.47;5008435;28;20069;-87
2023/08/04 05:20:33;;;;;;;7.47;7.03;;;;;;;33.28;70.89;94462.59;5021994;28;20025;-85
2023/08/04 05:22:58;;;;;;;7.60;7.07;;;;;;;33.26;70.28;94462.13;5020666;28;20465;-89
2023/08/04 05:25:24;;;;;;;7.82;7.10;;;;;;;35.22;62.54;94452.56;5022331;28;20490;-83
2023/08/04 05:27:52;;;;;;;13.85;7.28;;;;;;;33.92;65.48;94461.22;5021075;28;20678;-90
2023/08/04 05:30:18;;;;;;;7.60;7.10;;;;;;;34.43;63.43;94459.16;5017415;28;20026;-88
2023/08/04 05:32:44;;;;;;;7.10;6.53;;;;;;;35.06;60.97;94457.84;5025387;28;20963;-89
2023/08/04 05:35:09;;;;;;;7.53;7.00;;;;;;;35.73;56.75;94461.84;5026044;28;20839;-87
2023/08/04 05:37:35;;;;;;;7.22;6.63;;;;;;;36.89;53.12;94458.84;5024353;28;20036;-89
2023/08/04 05:40:03;;;;;;;6.97;6.37;;;;;;;34.65;59.05;94461.47;5020803;28;20034;-88
2023/08/04 05:42:28;;;;;;;7.55;6.78;;;;;;;35.65;57.19;94462.75;5018141;28;20046;-86
2023/08/04 05:44:54;;;;;;;7.40;6.90;;;;;;;36.81;50.87;94459.78;5024374;28;20025;-86
2023/08/04 05:47:25;;;;;;;7.33;6.73;;;;;;;36.65;49.60;94465.19;5023757;28;20037;-85
2023/08/04 05:49:51;;;;;;;7.50;6.82;;;;;;;37.64;49.20;94462.19;5023056;28;20517;-84
2023/08/04 05:52:16;;;;;;;7.93;6.30;;;;;;;36.55;48.83;94463.00;5022130;28;20029;-83
2023/08/04 05:54:42;;;;;;;7.00;6.57;;;;;;;38.60;46.73;94470.31;5022270;28;20029;-86
2023/08/04 05:57:07;;;;;;;6.67;6.27;;;;;;;38.76;47.16;94467.50;5020279;28;20048;-83
2023/08/04 05:59:32;;;;;;;6.77;6.10;;;;;;;38.42;47.85;94461.88;5022850;28;20088;-86
2023/08/04 06:01:58;;;;;;;6.83;6.23;;;;;;;38.60;45.83;94464.91;5018123;28;20535;-84
2023/08/04 06:04:23;;;;;;;6.67;6.17;;;;;;;37.73;47.55;94462.75;5021956;28;20033;-85
2023/08/04 06:06:49;;;;;;;6.63;6.23;;;;;;;37.52;47.77;94456.91;5016709;28;20535;-85
2023/08/04 06:09:14;;;;;;;6.73;6.20;;;;;;;39.10;45.11;94453.00;5013778;28;20810;-85
2023/08/04 06:11:39;;;;;;;6.30;5.90;;;;;;;37.12;48.45;94459.03;5022779;28;20049;-86
2023/08/04 06:14:05;;;;;;;7.33;5.93;;;;;;;39.72;45.00;94456.31;5023664;28;20030;-86
2023/08/04 06:16:30;;;;;;;8.20;6.37;;;;;;;37.91;47.15;94460.47;5023277;28;20505;-86
2023/08/04 06:18:58;;;;;;;6.70;6.20;;;;;;;38.81;47.43;94456.41;5023700;28;20053;-87
2023/08/04 06:21:23;;;;;;;7.00;5.93;;;;;;;39.76;45.44;94457.09;5021576;28;20125;-87
2023/08/04 06:23:49;;;;;;;6.57;5.90;;;;;;;40.06;45.01;94451.69;5019220;28;20437;-85
2023/08/04 06:26:15;;;;;;;7.15;6.75;;;;;;;39.74;43.66;94459.41;5001999;28;20030;-86
2023/08/04 06:28:41;;;;;;;7.55;6.90;;;;;;;39.01;43.33;94455.19;5009336;28;20030;-84
2023/08/04 06:31:06;;;;;;;8.30;7.70;;;;;;;38.19;46.15;94452.09;5038483;28;20037;-86
2023/08/04 06:33:32;;;;;;;6.93;6.53;;;;;;;36.70;51.08;94453.34;5022853;28;20106;-86
2023/08/04 06:35:57;;;;;;;8.45;7.85;;;;;;;36.05;51.69;94454.66;5023224;28;20635;-83
2023/08/04 06:38:23;;;;;;;8.00;7.30;;;;;;;35.98;54.10;94441.75;5022778;28;20125;-86
2023/08/04 06:40:49;;;;;;;6.63;6.22;;;;;;;36.28;54.28;94445.69;5022558;28;20052;-86
2023/08/04 06:43:14;;;;;;;6.33;5.93;;;;;;;36.03;52.39;94448.81;5024111;28;20025;-86
2023/08/04 06:45:39;;;;;;;7.13;6.63;;;;;;;37.44;51.68;94455.16;5023920;28;20025;-86
2023/08/04 06:48:05;;;;;;;6.30;5.90;;;;;;;40.07;45.56;94448.59;5024141;28;20034;-86
2023/08/04 06:50:30;;;;;;;6.10;5.60;;;;;;;40.76;42.13;94447.03;5021984;28;20106;-86
2023/08/04 06:52:56;;;;;;;6.35;6.00;;;;;;;41.07;41.31;94436.84;5022526;28;20044;-86
2023/08/04 06:55:21;;;;;;;6.78;6.25;;;;;;;40.51;38.45;94441.34;5021708;28;20021;-91
2023/08/04 06:57:46;;;;;;;7.43;6.82;;;;;;;40.64;40.58;94439.16;5023715;28;20025;-85
2023/08/04 07:00:12;;;;;;;7.05;6.40;;;;;;;38.89;41.91;94445.31;5024045;28;20125;-88
2023/08/04 07:02:42;;;;;;;8.63;6.20;;;;;;;36.29;46.90;94444.53;5021292;28;20032;-84
2023/08/04 07:05:07;;;;;;;6.30;5.70;;;;;;;36.77;48.59;94440.78;5020782;28;20025;-86
2023/08/04 07:07:33;;;;;;;7.38;5.68;;;;;;;35.69;45.45;94432.06;5022942;28;20033;-88
2023/08/04 07:09:58;;;;;;;6.30;5.80;;;;;;;33.86;51.84;94437.53;5023503;28;20021;-85
2023/08/04 07:12:23;;;;;;;6.35;5.88;;;;;;;35.27;46.16;94431.56;5023081;28;20032;-84
2023/08/04 07:14:49;;;;;;;5.80;5.50;;;;;;;36.05;44.54;94430.38;5019934;28;20120;-81
2023/08/04 07:17:14;;;;;;;6.65;5.85;;;;;;;34.54;47.83;94433.41;5010019;28;20091;-93
2023/08/04 07:19:40;;;;;;;6.75;6.18;;;;;;;33.61;54.48;94433.16;5014165;28;20029;-86
2023/08/04 07:22:05;;;;;;;6.75;6.35;;;;;;;34.99;48.31;94429.88;5018617;28;20025;-87
2023/08/04 07:24:31;;;;;;;7.00;6.40;;;;;;;35.12;50.83;94431.47;5010949;28;20467;-86
2023/08/04 07:26:57;;;;;;;6.70;6.30;;;;;;;34.70;51.90;94430.88;5020707;28;20073;-86
2023/08/04 07:29:22;;;;;;;7.15;6.57;;;;;;;35.57;47.15;94429.38;5021534;28;20152;-87
2023/08/04 07:31:47;;;;;;;6.45;6.05;;;;;;;35.74;46.58;94421.03;5021923;28;20116;-90
2023/08/04 07:34:13;;;;;;;6.95;6.30;;;;;;;35.09;46.75;94426.72;5023179;28;20502;-89
2023/08/04 07:36:38;;;;;;;7.60;6.60;;;;;;;35.13;45.95;94416.88;5020546;28;20025;-86
2023/08/04 07:39:04;;;;;;;8.82;7.10;;;;;;;34.46;46.29;94420.81;5018126;28;20037;-85
2023/08/04 07:41:30;;;;;;;7.57;7.07;;;;;;;33.84;48.59;94421.72;5022139;28;20431;-86
2023/08/04 07:43:55;;;;;;;6.78;6.38;;;;;;;34.26;47.77;94413.63;5009950;28;20018;-89
2023/08/04 07:46:27;;;;;;;6.93;6.43;;;;;;;34.00;48.19;94418.44;5022388;28;20033;-89
2023/08/04 07:48:53;;;;;;;8.32;6.72;;;;;;;33.57;49.01;94416.09;5020994;28;20040;-85
2023/08/04 07:51:19;;;;;;;7.00;6.50;;;;;;;33.29;49.30;94421.19;5003228;28;20029;-83
2023/08/04 07:53:44;;;;;;;7.05;6.57;;;;;;;32.81;50.42;94418.91;5022119;28;20021;-83
2023/08/04 07:56:10;;;;;;;9.27;6.35;;;;;;;32.77;52.13;94408.03;5024551;28;20048;-88
2023/08/04 07:58:36;;;;;;;7.05;6.55;;;;;;;33.04;50.83;94408.69;5038308;28;20080;-93
2023/08/04 08:01:04;;;;;;;6.60;6.20;;;;;;;34.27;49.38;94409.78;5030862;28;20112;-89
2023/08/04 08:03:33;;;;;;;6.50;5.82;;;;;;;32.97;50.99;94414.56;5027970;28;20061;-92
2023/08/04 08:06:00;;;;;;;6.65;6.20;;;;;;;32.47;51.18;94409.06;5036603;28;20830;-84
2023/08/04 08:08:31;;;;;;;8.35;6.50;;;;;;;34.60;48.84;94410.56;5013277;28;20502;-89
2023/08/04 08:10:59;;;;;;;6.50;6.00;;;;;;;33.50;49.33;94410.44;5013161;28;20080;-86
2023/08/04 08:13:24;;;;;;;6.72;6.32;;;;;;;33.69;50.33;94411.59;5017422;28;20068;-93
2023/08/04 08:15:50;;;;;;;6.75;6.35;;;;;;;33.40;51.82;94398.19;5016809;28;20435;-88
2023/08/04 08:18:16;;;;;;;6.28;5.78;;;;;;;33.87;48.38;94413.03;5025218;28;20018;-89
2023/08/04 08:20:43;;;;;;;7.10;6.43;;;;;;;33.38;51.48;94416.53;5025452;28;20033;-86
2023/08/04 08:23:10;;;;;;;7.05;6.55;;;;;;;33.79;49.79;94408.50;5022157;28;20029;-87
2023/08/04 08:25:36;;;;;;;7.10;6.50;;;;;;;34.19;48.35;94406.09;5006048;28;20585;-88
2023/08/04 08:28:02;;;;;;;6.47;6.07;;;;;;;34.76;48.85;94400.69;5020112;28;20033;-88
2023/08/04 08:30:28;;;;;;;5.45;5.15;;;;;;;33.69;47.00;94400.03;5019164;28;20029;-83
2023/08/04 08:32:53;;;;;;;6.38;5.85;;;;;;;33.94;45.93;94406.31;5022339;28;20041;-90
2023/08/04 08:35:19;;;;;;;7.25;5.05;;;;;;;33.43;45.35;94391.41;5016221;28;20468;-87
2023/08/04 08:37:44;;;;;;;5.57;5.18;;;;;;;33.94;44.41;94400.94;5019914;28;20038;-86
2023/08/04 08:40:10;;;;;;;6.43;5.38;;;;;;;33.35;42.78;94395.72;5000553;28;20092;-86
2023/08/04 08:42:36;;;;;;;5.63;5.10;;;;;;;33.48;44.30;94397.34;5006416;28;20087;-90
2023/08/04 08:45:02;;;;;;;5.53;5.10;;;;;;;33.24;44.17;94399.88;5020409;28;20057;-91
2023/08/04 08:47:37;;;;;;;6.45;5.65;;;;;;;33.19;43.83;94390.13;5000393;28;20026;-85
2023/08/04 08:50:05;;;;;;;7.22;6.15;;;;;;;33.12;42.80;94403.28;5021133;28;20036;-88
2023/08/04 08:52:35;;;;;;;5.45;5.15;;;;;;;33.56;43.23;94399.16;5021954;28;20048;-89
2023/08/04 08:55:02;;;;;;;5.72;5.32;;;;;;;33.54;43.44;94393.34;5020213;28;20025;-85
2023/08/04 08:57:28;;;;;;;5.93;5.53;;;;;;;34.02;44.12;94392.00;5022375;28;20529;-89
2023/08/04 08:59:57;;;;;;;6.55;5.95;;;;;;;33.49;44.61;94392.75;5022458;28;20038;-88
2023/08/04 09:02:23;;;;;;;6.05;5.65;;;;;;;33.77;45.73;94383.84;5007538;28;20530;-90
2023/08/04 09:04:48;;;;;;;5.70;5.20;;;;;;;34.19;43.69;94383.78;5023054;28;20025;-90
2023/08/04 09:07:14;;;;;;;5.65;5.25;;;;;;;33.92;42.36;94374.38;5026261;28;20036;-87
2023/08/04 09:09:40;;;;;;;6.05;5.70;;;;;;;33.77;43.68;94386.53;5008261;28;20080;-84
2023/08/04 09:12:06;;;;;;;7.57;5.65;;;;;;;34.48;43.04;94372.84;5008168;28;20364;-84
2023/08/04 09:15:07;;;;;;;7.40;5.68;;;;;;;33.59;46.61;94382.38;5008823;28;20525;-85
2023/08/04 09:17:37;;;;;;;6.07;5.35;;;;;;;33.64;44.30;94382.22;4935443;28;20072;-89
2023/08/04 09:20:05;;;;;;;6.40;6.00;;;;;;;34.19;44.71;94371.13;4994861;28;20037;-86
2023/08/04 09:22:34;;;;;;;6.20;5.80;;;;;;;34.43;46.69;94373.03;5023980;28;20589;-86
2023/08/04 09:25:02;;;;;;;6.78;5.88;;;;;;;34.51;43.27;94377.56;5025321;28;20037;-86
2023/08/04 09:27:27;;;;;;;5.72;5.32;;;;;;;34.48;43.96;94372.84;5010156;28;20112;-90
2023/08/04 09:30:00;;;;;;;6.50;6.10;;;;;;;33.16;45.40;94381.94;5025050;28;20167;-82
2023/08/04 09:32:26;;;;;;;6.60;6.20;;;;;;;34.21;45.66;94365.38;5033031;28;20029;-83
2023/08/04 09:35:02;;;;;;;9.50;6.15;;;;;;;34.17;41.28;94376.03;5010325;28;20029;-81
2023/08/04 09:37:31;;;;;;;6.20;5.70;;;;;;;34.50;40.10;94365.22;5020932;28;20025;-85
2023/08/04 09:39:56;;;;;;;5.15;4.85;;;;;;;34.39;38.89;94367.53;5029646;28;20080;-91
2023/08/04 09:42:22;;;;;;;6.03;5.45;;;;;;;34.66;38.71;94368.03;5020367;28;20036;-84
2023/08/04 09:44:55;;;;;;;5.00;4.70;;;;;;;34.11;40.28;94374.69;5020660;28;20498;-92
2023/08/04 09:47:24;;;;;;;6.00;5.55;;;;;;;34.34;39.00;94361.59;5019035;28;20943;-94
2023/08/04 09:49:50;;;;;;;6.20;5.68;;;;;;;34.38;40.42;94362.50;5024255;28;20479;-92
2023/08/04 09:52:21;;;;;;;5.57;5.28;;;;;;;33.90;40.17;94357.78;5035744;28;20565;-85
2023/08/04 09:54:47;;;;;;;9.15;5.55;;;;;;;34.82;39.32;94356.25;5013243;28;20034;-86
2023/08/04 09:57:14;;;;;;;5.93;5.43;;;;;;;34.35;39.33;94357.81;5027823;28;20187;-94
2023/08/04 09:59:40;;;;;;;7.93;5.97;;;;;;;34.05;39.95;94359.06;5021940;28;20083;-88
2023/08/04 10:02:06;;;;;;;6.28;5.60;;;;;;;34.36;40.67;94353.97;5013274;28;20455;-90
2023/08/04 10:04:33;;;;;;;6.25;5.65;;;;;;;34.36;40.01;94356.66;5022812;28;20025;-90
2023/08/04 10:06:59;;;;;;;6.50;5.82;;;;;;;34.17;38.05;94356.41;5023862;28;20641;-86
2023/08/04 10:09:26;;;;;;;5.90;5.50;;;;;;;34.33;39.12;94354.63;5019570;28;20128;-84
2023/08/04 10:11:52;;;;;;;7.00;6.35;;;;;;;34.42;40.23;94352.66;5023699;28;20042;-92
2023/08/04 10:14:18;;;;;;;8.35;5.88;;;;;;;34.42;41.40;94355.34;5015924;28;20041;-83
2023/08/04 10:16:44;;;;;;;6.60;6.10;;;;;;;34.47;39.65;94360.50;5005263;28;20475;-88
2023/08/04 10:19:11;;;;;;;7.15;6.55;;;;;;;34.42;39.95;94355.34;5022553;28;20091;-89
2023/08/04 10:21:39;;;;;;;6.30;5.70;;;;;;;34.43;39.51;94354.22;5006633;28;20510;-82
2023/08/04 10:24:06;;;;;;;6.25;5.68;;;;;;;34.24;40.47;94346.69;5025819;28;20811;-88
2023/08/04 10:26:52;;;;;;;7.07;6.47;;;;;;;33.99;41.42;94339.66;5036427;28;20041;-92
2023/08/04 10:29:19;;;;;;;6.13;5.50;;;;;;;33.99;40.96;94352.31;5026009;28;20137;-93
2023/08/04 10:31:56;;;;;;;5.75;5.35;;;;;;;34.45;41.05;94345.81;5024429;28;20108;-89
2023/08/04 10:34:31;;;;;;;7.00;6.30;;;;;;;34.71;41.05;94349.75;5023993;28;20032;-90
2023/08/04 10:37:07;;;;;;;6.95;6.38;;;;;;;34.55;40.46;94343.44;5009186;28;20033;-91
2023/08/04 10:39:44;;;;;;;5.78;5.38;;;;;;;34.40;40.09;94344.13;5018741;28;20029;-90
2023/08/04 10:42:13;;;;;;;6.28;5.80;;;;;;;34.43;39.73;94327.28;5019319;28;20108;-81
2023/08/04 10:44:54;;;;;;;5.80;5.47;;;;;;;34.81;39.72;94322.38;5009437;28;20022;-85
2023/08/04 10:47:45;;;;;;;6.30;5.72;;;;;;;34.82;37.50;94323.94;5010700;28;20057;-82
2023/08/04 10:50:12;;;;;;;6.00;5.50;;;;;;;34.39;37.48;94327.19;5017800;28;20022;-89
2023/08/04 10:52:39;;;;;;;5.45;5.00;;;;;;;35.02;38.76;94321.44;5013315;28;20038;-91
2023/08/04 10:55:07;;;;;;;6.28;5.68;;;;;;;34.91;37.68;94315.75;5019967;28;20032;-94
2023/08/04 10:57:33;;;;;;;5.03;4.60;;;;;;;34.78;37.30;94316.88;5013117;28;20112;-89
2023/08/04 11:00:08;;;;;;;6.03;5.43;;;;;;;34.90;38.68;94312.25;5013163;28;20772;-92
2023/08/04 11:02:34;;;;;;;5.60;5.10;;;;;;;35.47;38.44;94313.16;5011869;28;20029;-87
2023/08/04 11:05:00;;;;;;;5.80;5.40;;;;;;;35.56;38.01;94308.38;5014639;28;20068;-92
2023/08/04 11:07:26;;;;;;;5.35;4.95;;;;;;;35.38;38.32;94305.97;5016929;28;20025;-88
2023/08/04 11:09:54;;;;;;;5.75;5.40;;;;;;;35.39;38.67;94310.25;5018959;28;20578;-93
2023/08/04 11:12:20;;;;;;;6.38;5.88;;;;;;;34.69;36.89;94303.53;5018375;28;20037;-85
2023/08/04 11:14:45;;;;;;;6.30;5.90;;;;;;;34.98;37.08;94299.78;5022243;28;20133;-88
2023/08/04 11:17:14;;;;;;;6.75;5.72;;;;;;;35.05;36.83;94301.91;5023204;28;20032;-90
2023/08/04 11:19:42;;;;;;;6.70;5.40;;;;;;;35.05;36.81;94293.84;5024509;28;20035;-88